__ Bye Litespeed _____
██████ ██████ ███████████ █████████ █████ ████ █████ ████
░░██████ ██████ ░░███░░░░░███ ███░░░░░███░░███ ███░ ░░███ ███░
░███░█████░███ ░███ ░███ ░███ ░░░ ░███ ███ ░███ ███
░███░░███ ░███ ░██████████ ░░█████████ ░███████ ░███████
░███ ░░░ ░███ ░███░░░░░███ ░░░░░░░░███ ░███░░███ ░███░░███
░███ ░███ ░███ ░███ ███ ░███ ░███ ░░███ ░███ ░░███
█████ █████ █████ █████ ░░█████████ █████ ░░████ █████ ░░████
| Permissions | ||||||
|---|---|---|---|---|---|---|
| . | 4096 | 2026-09-03 18:35:36 | 0755 | |||
| .. | 51 | 2026-03-05 20:21:44 | 0755 | |||
| cron.daily | 30 | 2026-08-12 21:19:10 | 0755 | |||
| mariadb1011 | 59 | 2026-03-05 20:21:57 | 0755 | |||
| mariadb102 | 59 | 2026-03-05 20:21:57 | 0755 | |||
| mariadb103 | 59 | 2026-03-05 20:21:57 | 0755 | |||
| mariadb104 | 59 | 2026-03-05 20:21:57 | 0755 | |||
| mariadb105 | 59 | 2026-03-05 20:21:57 | 0755 | |||
| mariadb106 | 59 | 2026-03-05 20:21:57 | 0755 | |||
| mariadb1104 | 59 | 2026-03-05 20:21:58 | 0755 | |||
| mysql5.6 | 59 | 2026-03-05 20:21:58 | 0755 | |||
| mysql5.7 | 59 | 2026-03-05 20:21:58 | 0755 | |||
| mysql8.0 | 59 | 2026-03-05 20:21:58 | 0755 | |||
| mysql8.4 | 59 | 2026-03-05 20:21:58 | 0755 | |||
| pear | 6 | 2026-08-18 19:49:17 | 0755 | |||
| pear.conf | 1190 | 2026-08-18 19:49:18 | 0644 | |||
| php-fpm.conf | 4676 | 2026-08-23 15:11:15 | 0644 | |||
| php-fpm.d | 6 | 2026-09-03 18:35:36 | 0755 | |||
| php.d | 63 | 2026-08-23 15:11:29 | 0755 | |||
| php.d.all | 4096 | 2026-08-23 15:11:29 | 0755 | |||
| php.d.std | 4096 | 2026-08-23 15:11:29 | 0755 | |||
| php.ini | 46430 | 2026-09-05 21:37:02 | 0644 | |||
| rpm | 43 | 2026-03-05 20:22:24 | 0755 | |||
| xcache_3 | 63 | 2026-08-12 20:59:54 | 0755 |